Terminal Aerodrome Forecast
Issued by NWS Mobile, AL

Home | Current Version | Previous Version | Text Only | Print | Product List | Glossary On
Versions: 1 2 3 4 5 6 7 8 9 10 11 12 13 14 15 16 17 18 19 20 21 22 23 24 25 26 27 28 29 30 31 32 33
000
FTUS44 KMOB 011734
TAFMOB
TAF
KMOB 011734Z 0118/0218 22007KT P6SM VCTS FEW020CB FEW120 SCT250
     FM020100 28003KT P6SM FEW040 SCT250
     FM021500 23009KT P6SM SCT250=

USA.gov is the U.S. government's official web portal to all federal, state and local government web resources and services.